KBDR

Igor I Sikorsky Memorial Airport

Bridgeport, Connecticut, USA
METAR KBDR 190652Z AUTO 36006KT 10SM CLR 19/12 A3001 RMK AO2 SLP161 T01890117
Observed Flight Rules
Jul-19 @ 06:52 UTC (49 minutes ago) Visual Flight Rules
Wind Visibility Clouds
360° at 6 knots 10 miles
  • Clear skies
Temperatures Readings
Current 19°C / 66°F
Dewpoint 12°C / 54°F
Humidity 64%
Altimeter 30.01" Hg
Pressure 1016.1 hPa
Elevation 7
METAR KBDR 190652Z AUTO 36006KT 10SM CLR 19/12 A3001 RMK AO2 SLP161 T01890117
Observed Flight Rules
Jul-19 @ 06:52 UTC
(49 minutes ago)
VFR
Wind Visibility
360° at 6 knots 10 miles
Clouds
  • Clear skies
Temperature Dewpoint
19°C / 66°F 12°C / 54°F
Humidity Altimeter Pressure
64% 30.01" Hg 1016.1 hPa